This is the latest recevied weather packets stored in our database for station/object VK3BKO-13. If no packets are shown the sender has not sent any weather packets the latest 10 day(s).
| Time | Temp. | Humidity | Pressure | Rain* | Wind** | Luminosity | Snow |
|---|---|---|---|---|---|---|---|
| 1777873624 | 18.33° C | 56% | 1008.2 hPa | 0 mm | - | 127 W/m² | - |
| 1777872724 | 18.89° C | 55% | 1008.2 hPa | 0 mm | - | 162 W/m² | - |
| 1777871823 | 19.44° C | 53% | 1008.2 hPa | 0 mm | - | 186 W/m² | - |
| 1777870924 | 19.44° C | 52% | 1008.2 hPa | 0 mm | - | 212 W/m² | - |
| 1777870024 | 19.44° C | 52% | 1008.2 hPa | 0 mm | - | 255 W/m² | - |
| 1777869123 | 19.44° C | 52% | 1008.2 hPa | 0 mm | - | 280 W/m² | - |
| 1777868224 | 19.44° C | 52% | 1008.5 hPa | 0 mm | - | 318 W/m² | - |
| 1777867324 | 19.44° C | 51% | 1008.2 hPa | 0 mm | - | 242 W/m² | - |
| 1777866424 | 19.44° C | 51% | 1008.5 hPa | 0 mm | - | 203 W/m² | - |
| 1777865524 | 19.44° C | 51% | 1008.8 hPa | 0 mm | - | 525 W/m² | - |
| 1777864624 | 19.44° C | 52% | 1008.8 hPa | 0 mm | - | 453 W/m² | - |
| 1777863724 | 18.89° C | 52% | 1009.2 hPa | 0 mm | - | 438 W/m² | - |
| 1777862824 | 19.44° C | 53% | 1009.5 hPa | 0 mm | - | 482 W/m² | - |
| 1777861923 | 19.44° C | 53% | 1009.2 hPa | 0 mm | - | 461 W/m² | - |
| 1777861024 | 17.78° C | 57% | 1009.5 hPa | 0 mm | - | 127 W/m² | - |
| 1777860124 | 19.44° C | 56% | 1009.9 hPa | 0 mm | - | 165 W/m² | - |
| 1777859224 | 18.89° C | 58% | 1009.9 hPa | 0 mm | - | 247 W/m² | - |
| 1777858324 | 18.89° C | 56% | 1009.9 hPa | 0 mm | - | 461 W/m² | - |
| 1777857424 | 18.89° C | 58% | 1009.9 hPa | 0 mm | - | 500 W/m² | - |
| 1777856524 | 18.33° C | 60% | 1010.2 hPa | 0 mm | - | 458 W/m² | - |
| 1777855624 | 17.22° C | 63% | 1010.2 hPa | 0 mm | - | 496 W/m² | - |
| 1777854724 | 18.33° C | 61% | 1010.5 hPa | 0 mm | - | 169 W/m² | - |
| 1777853824 | 18.33° C | 61% | 1010.5 hPa | 0 mm | - | 396 W/m² | - |
| 1777852924 | 17.78° C | 62% | 1010.2 hPa | 0 mm | - | 338 W/m² | - |
| 1777852024 | 17.78° C | 62% | 1010.5 hPa | 0 mm | - | 307 W/m² | - |
* Rain latest hour (hover to see other rain measurements)
** Current wind speed in m/s (hover to see current wind gust speed)